sensor_id;sensor_type;location;lat;lon;timestamp;P1;durP1;ratioP1;P2;durP2;ratioP2
64651;SDS011;51062;45.120;37.660;2023-08-06T00:00:45;48.25;;;45.05;;
64651;SDS011;51062;45.120;37.660;2023-08-06T00:03:11;54.28;;;50.75;;
64651;SDS011;51062;45.120;37.660;2023-08-06T00:05:41;47.50;;;44.28;;
64651;SDS011;51062;45.120;37.660;2023-08-06T00:08:08;44.00;;;40.75;;
64651;SDS011;51062;45.120;37.660;2023-08-06T00:10:34;48.58;;;45.17;;
64651;SDS011;51062;45.120;37.660;2023-08-06T00:13:00;44.80;;;41.83;;
64651;SDS011;51062;45.120;37.660;2023-08-06T00:15:26;38.10;;;35.28;;
64651;SDS011;51062;45.120;37.660;2023-08-06T00:17:52;45.55;;;42.65;;
64651;SDS011;51062;45.120;37.660;2023-08-06T00:20:18;45.13;;;42.00;;
64651;SDS011;51062;45.120;37.660;2023-08-06T00:22:44;37.28;;;34.78;;
64651;SDS011;51062;45.120;37.660;2023-08-06T00:25:10;46.05;;;43.05;;
64651;SDS011;51062;45.120;37.660;2023-08-06T00:27:37;43.25;;;40.10;;
64651;SDS011;51062;45.120;37.660;2023-08-06T00:30:03;43.63;;;40.63;;
64651;SDS011;51062;45.120;37.660;2023-08-06T00:32:30;43.90;;;41.08;;
64651;SDS011;51062;45.120;37.660;2023-08-06T00:34:57;49.97;;;45.40;;
64651;SDS011;51062;45.120;37.660;2023-08-06T00:37:23;48.67;;;45.45;;
64651;SDS011;51062;45.120;37.660;2023-08-06T00:39:49;48.47;;;45.17;;
64651;SDS011;51062;45.120;37.660;2023-08-06T00:42:15;51.00;;;47.70;;
64651;SDS011;51062;45.120;37.660;2023-08-06T00:44:46;48.42;;;45.17;;
64651;SDS011;51062;45.120;37.660;2023-08-06T00:47:12;46.42;;;43.22;;
64651;SDS011;51062;45.120;37.660;2023-08-06T00:49:39;45.70;;;42.75;;
64651;SDS011;51062;45.120;37.660;2023-08-06T00:52:05;44.08;;;41.03;;
64651;SDS011;51062;45.120;37.660;2023-08-06T00:54:36;40.97;;;38.25;;
64651;SDS011;51062;45.120;37.660;2023-08-06T00:57:02;46.22;;;43.13;;
64651;SDS011;51062;45.120;37.660;2023-08-06T00:59:30;43.88;;;40.53;;
64651;SDS011;51062;45.120;37.660;2023-08-06T01:01:57;41.10;;;38.28;;
64651;SDS011;51062;45.120;37.660;2023-08-06T01:04:23;40.17;;;37.33;;
64651;SDS011;51062;45.120;37.660;2023-08-06T01:12:06;39.13;;;36.55;;
64651;SDS011;51062;45.120;37.660;2023-08-06T01:17:30;50.22;;;46.90;;
64651;SDS011;51062;45.120;37.660;2023-08-06T01:19:57;53.30;;;49.80;;
64651;SDS011;51062;45.120;37.660;2023-08-06T01:22:23;45.38;;;42.35;;
64651;SDS011;51062;45.120;37.660;2023-08-06T01:24:49;45.63;;;42.67;;
64651;SDS011;51062;45.120;37.660;2023-08-06T01:30:22;43.63;;;40.75;;
64651;SDS011;51062;45.120;37.660;2023-08-06T01:32:58;47.65;;;44.42;;
64651;SDS011;51062;45.120;37.660;2023-08-06T01:35:26;56.67;;;51.63;;
64651;SDS011;51062;45.120;37.660;2023-08-06T01:37:54;41.30;;;38.42;;
64651;SDS011;51062;45.120;37.660;2023-08-06T01:40:22;42.45;;;39.50;;
64651;SDS011;51062;45.120;37.660;2023-08-06T01:42:48;41.80;;;39.08;;
64651;SDS011;51062;45.120;37.660;2023-08-06T01:45:14;43.63;;;40.17;;
64651;SDS011;51062;45.120;37.660;2023-08-06T01:47:40;47.72;;;44.35;;
64651;SDS011;51062;45.120;37.660;2023-08-06T01:50:06;35.10;;;32.83;;
64651;SDS011;51062;45.120;37.660;2023-08-06T01:52:33;49.40;;;44.88;;
64651;SDS011;51062;45.120;37.660;2023-08-06T01:54:59;48.80;;;42.90;;
64651;SDS011;51062;45.120;37.660;2023-08-06T01:57:25;51.33;;;47.88;;
64651;SDS011;51062;45.120;37.660;2023-08-06T01:59:51;49.97;;;46.65;;
64651;SDS011;51062;45.120;37.660;2023-08-06T02:02:17;51.13;;;47.63;;
64651;SDS011;51062;45.120;37.660;2023-08-06T02:04:43;51.03;;;47.55;;
64651;SDS011;51062;45.120;37.660;2023-08-06T02:07:11;51.97;;;47.60;;
64651;SDS011;51062;45.120;37.660;2023-08-06T02:09:37;50.63;;;47.30;;
64651;SDS011;51062;45.120;37.660;2023-08-06T02:12:03;47.30;;;44.05;;
64651;SDS011;51062;45.120;37.660;2023-08-06T02:14:30;46.47;;;43.33;;
64651;SDS011;51062;45.120;37.660;2023-08-06T02:16:56;43.67;;;40.75;;
64651;SDS011;51062;45.120;37.660;2023-08-06T02:19:24;42.25;;;39.45;;
64651;SDS011;51062;45.120;37.660;2023-08-06T02:21:50;40.40;;;37.58;;
64651;SDS011;51062;45.120;37.660;2023-08-06T02:24:16;56.45;;;52.58;;
64651;SDS011;51062;45.120;37.660;2023-08-06T02:26:42;51.22;;;47.75;;
64651;SDS011;51062;45.120;37.660;2023-08-06T02:29:08;50.20;;;46.55;;
64651;SDS011;51062;45.120;37.660;2023-08-06T02:31:35;48.45;;;44.88;;
64651;SDS011;51062;45.120;37.660;2023-08-06T02:34:01;43.80;;;40.83;;
64651;SDS011;51062;45.120;37.660;2023-08-06T02:36:27;55.08;;;51.22;;
64651;SDS011;51062;45.120;37.660;2023-08-06T02:38:55;50.33;;;46.83;;
64651;SDS011;51062;45.120;37.660;2023-08-06T02:41:22;51.50;;;47.95;;
64651;SDS011;51062;45.120;37.660;2023-08-06T02:43:48;54.25;;;50.67;;
64651;SDS011;51062;45.120;37.660;2023-08-06T02:46:14;54.63;;;51.05;;
64651;SDS011;51062;45.120;37.660;2023-08-06T02:48:40;50.20;;;46.90;;
64651;SDS011;51062;45.120;37.660;2023-08-06T02:51:06;49.90;;;46.45;;
64651;SDS011;51062;45.120;37.660;2023-08-06T02:53:32;55.20;;;51.50;;
64651;SDS011;51062;45.120;37.660;2023-08-06T02:56:02;52.13;;;48.65;;
64651;SDS011;51062;45.120;37.660;2023-08-06T02:58:38;53.47;;;49.17;;
64651;SDS011;51062;45.120;37.660;2023-08-06T03:01:16;55.03;;;50.53;;
64651;SDS011;51062;45.120;37.660;2023-08-06T03:03:52;52.55;;;49.08;;
64651;SDS011;51062;45.120;37.660;2023-08-06T03:06:24;49.10;;;45.67;;
64651;SDS011;51062;45.120;37.660;2023-08-06T03:08:53;44.47;;;41.42;;
64651;SDS011;51062;45.120;37.660;2023-08-06T03:11:20;42.85;;;39.67;;
64651;SDS011;51062;45.120;37.660;2023-08-06T03:13:49;43.30;;;39.20;;
64651;SDS011;51062;45.120;37.660;2023-08-06T03:16:16;33.33;;;30.35;;
64651;SDS011;51062;45.120;37.660;2023-08-06T03:18:42;33.53;;;30.92;;
64651;SDS011;51062;45.120;37.660;2023-08-06T03:21:09;36.60;;;33.88;;
64651;SDS011;51062;45.120;37.660;2023-08-06T03:23:35;35.38;;;31.60;;
64651;SDS011;51062;45.120;37.660;2023-08-06T03:26:03;27.02;;;24.95;;
64651;SDS011;51062;45.120;37.660;2023-08-06T03:28:31;27.98;;;25.70;;
64651;SDS011;51062;45.120;37.660;2023-08-06T03:31:01;22.15;;;20.05;;
64651;SDS011;51062;45.120;37.660;2023-08-06T03:33:33;38.30;;;20.63;;
64651;SDS011;51062;45.120;37.660;2023-08-06T03:36:00;22.38;;;20.20;;
64651;SDS011;51062;45.120;37.660;2023-08-06T03:38:28;21.27;;;19.23;;
64651;SDS011;51062;45.120;37.660;2023-08-06T03:40:54;22.77;;;20.88;;
64651;SDS011;51062;45.120;37.660;2023-08-06T03:43:20;21.95;;;20.13;;
64651;SDS011;51062;45.120;37.660;2023-08-06T03:45:47;28.23;;;25.92;;
64651;SDS011;51062;45.120;37.660;2023-08-06T03:48:13;19.70;;;18.15;;
64651;SDS011;51062;45.120;37.660;2023-08-06T03:50:39;25.40;;;22.85;;
64651;SDS011;51062;45.120;37.660;2023-08-06T03:53:10;23.63;;;21.45;;
64651;SDS011;51062;45.120;37.660;2023-08-06T03:55:35;24.73;;;22.83;;
64651;SDS011;51062;45.120;37.660;2023-08-06T03:58:02;32.42;;;27.50;;
64651;SDS011;51062;45.120;37.660;2023-08-06T04:00:28;28.25;;;25.27;;
64651;SDS011;51062;45.120;37.660;2023-08-06T04:02:55;29.23;;;26.60;;
64651;SDS011;51062;45.120;37.660;2023-08-06T04:05:21;27.50;;;24.20;;
64651;SDS011;51062;45.120;37.660;2023-08-06T04:07:47;21.50;;;19.42;;
64651;SDS011;51062;45.120;37.660;2023-08-06T04:10:13;25.27;;;23.30;;
64651;SDS011;51062;45.120;37.660;2023-08-06T04:12:39;23.50;;;21.63;;
64651;SDS011;51062;45.120;37.660;2023-08-06T04:15:05;24.42;;;20.25;;
64651;SDS011;51062;45.120;37.660;2023-08-06T04:17:32;29.48;;;25.85;;
64651;SDS011;51062;45.120;37.660;2023-08-06T04:19:58;34.00;;;31.27;;
64651;SDS011;51062;45.120;37.660;2023-08-06T04:22:25;33.33;;;30.30;;
64651;SDS011;51062;45.120;37.660;2023-08-06T04:24:51;37.15;;;34.38;;
64651;SDS011;51062;45.120;37.660;2023-08-06T04:27:18;39.15;;;36.08;;
64651;SDS011;51062;45.120;37.660;2023-08-06T04:29:47;30.90;;;28.48;;
64651;SDS011;51062;45.120;37.660;2023-08-06T04:32:14;27.67;;;25.10;;
64651;SDS011;51062;45.120;37.660;2023-08-06T04:35:00;33.83;;;30.40;;
64651;SDS011;51062;45.120;37.660;2023-08-06T04:37:26;34.92;;;32.15;;
64651;SDS011;51062;45.120;37.660;2023-08-06T04:39:53;39.33;;;36.42;;
64651;SDS011;51062;45.120;37.660;2023-08-06T04:42:19;32.55;;;30.13;;
64651;SDS011;51062;45.120;37.660;2023-08-06T04:44:46;37.13;;;34.08;;
64651;SDS011;51062;45.120;37.660;2023-08-06T04:47:12;42.38;;;39.10;;
64651;SDS011;51062;45.120;37.660;2023-08-06T04:49:38;40.67;;;35.90;;
64651;SDS011;51062;45.120;37.660;2023-08-06T04:52:04;33.67;;;30.08;;
64651;SDS011;51062;45.120;37.660;2023-08-06T04:54:31;37.83;;;35.15;;
64651;SDS011;51062;45.120;37.660;2023-08-06T04:56:57;31.90;;;28.23;;
64651;SDS011;51062;45.120;37.660;2023-08-06T04:59:23;36.90;;;33.78;;
64651;SDS011;51062;45.120;37.660;2023-08-06T05:01:49;39.83;;;37.00;;
64651;SDS011;51062;45.120;37.660;2023-08-06T05:04:15;36.85;;;34.15;;
64651;SDS011;51062;45.120;37.660;2023-08-06T05:06:41;39.42;;;36.05;;
64651;SDS011;51062;45.120;37.660;2023-08-06T05:09:07;37.10;;;34.47;;
64651;SDS011;51062;45.120;37.660;2023-08-06T05:11:33;50.17;;;46.38;;
64651;SDS011;51062;45.120;37.660;2023-08-06T05:13:59;56.42;;;52.25;;
64651;SDS011;51062;45.120;37.660;2023-08-06T05:16:25;55.88;;;51.45;;
64651;SDS011;51062;45.120;37.660;2023-08-06T05:18:51;43.70;;;40.40;;
64651;SDS011;51062;45.120;37.660;2023-08-06T05:21:18;54.03;;;49.60;;
64651;SDS011;51062;45.120;37.660;2023-08-06T05:23:44;55.25;;;51.28;;
64651;SDS011;51062;45.120;37.660;2023-08-06T05:26:10;63.22;;;58.25;;
64651;SDS011;51062;45.120;37.660;2023-08-06T05:28:36;43.90;;;40.50;;
64651;SDS011;51062;45.120;37.660;2023-08-06T05:31:05;42.90;;;39.60;;
64651;SDS011;51062;45.120;37.660;2023-08-06T05:33:31;43.25;;;39.50;;
64651;SDS011;51062;45.120;37.660;2023-08-06T05:35:57;42.92;;;39.72;;
64651;SDS011;51062;45.120;37.660;2023-08-06T05:38:23;68.03;;;62.92;;
64651;SDS011;51062;45.120;37.660;2023-08-06T05:40:49;46.33;;;42.22;;
64651;SDS011;51062;45.120;37.660;2023-08-06T05:43:15;60.70;;;56.25;;
64651;SDS011;51062;45.120;37.660;2023-08-06T05:45:45;52.25;;;48.35;;
64651;SDS011;51062;45.120;37.660;2023-08-06T05:48:12;53.63;;;49.70;;
64651;SDS011;51062;45.120;37.660;2023-08-06T05:50:38;52.35;;;48.38;;
64651;SDS011;51062;45.120;37.660;2023-08-06T05:53:04;47.58;;;44.05;;
64651;SDS011;51062;45.120;37.660;2023-08-06T05:55:30;81.15;;;74.40;;
64651;SDS011;51062;45.120;37.660;2023-08-06T05:57:57;56.10;;;51.92;;
64651;SDS011;51062;45.120;37.660;2023-08-06T06:00:23;53.53;;;49.55;;
64651;SDS011;51062;45.120;37.660;2023-08-06T06:02:49;44.83;;;41.05;;
64651;SDS011;51062;45.120;37.660;2023-08-06T06:05:16;50.03;;;46.25;;
64651;SDS011;51062;45.120;37.660;2023-08-06T06:07:42;64.80;;;59.60;;
64651;SDS011;51062;45.120;37.660;2023-08-06T06:10:08;78.80;;;72.28;;
64651;SDS011;51062;45.120;37.660;2023-08-06T06:12:34;48.17;;;43.70;;
64651;SDS011;51062;45.120;37.660;2023-08-06T06:15:00;49.63;;;45.80;;
64651;SDS011;51062;45.120;37.660;2023-08-06T06:17:28;48.45;;;44.38;;
64651;SDS011;51062;45.120;37.660;2023-08-06T06:19:55;53.97;;;49.40;;
64651;SDS011;51062;45.120;37.660;2023-08-06T06:22:21;54.17;;;50.13;;
64651;SDS011;51062;45.120;37.660;2023-08-06T06:24:47;64.38;;;58.80;;
64651;SDS011;51062;45.120;37.660;2023-08-06T06:27:13;57.78;;;53.30;;
64651;SDS011;51062;45.120;37.660;2023-08-06T06:29:39;58.33;;;53.83;;
64651;SDS011;51062;45.120;37.660;2023-08-06T06:32:05;49.33;;;45.63;;
64651;SDS011;51062;45.120;37.660;2023-08-06T06:34:31;48.85;;;45.20;;
64651;SDS011;51062;45.120;37.660;2023-08-06T06:36:57;42.53;;;39.35;;
64651;SDS011;51062;45.120;37.660;2023-08-06T06:39:23;57.25;;;52.75;;
64651;SDS011;51062;45.120;37.660;2023-08-06T06:41:49;47.75;;;43.88;;
64651;SDS011;51062;45.120;37.660;2023-08-06T06:44:23;55.97;;;51.70;;
64651;SDS011;51062;45.120;37.660;2023-08-06T06:46:50;49.58;;;44.92;;
64651;SDS011;51062;45.120;37.660;2023-08-06T06:49:16;51.55;;;47.70;;
64651;SDS011;51062;45.120;37.660;2023-08-06T06:51:42;47.92;;;44.30;;
64651;SDS011;51062;45.120;37.660;2023-08-06T06:54:08;65.78;;;60.88;;
64651;SDS011;51062;45.120;37.660;2023-08-06T06:56:34;48.63;;;44.95;;
64651;SDS011;51062;45.120;37.660;2023-08-06T06:59:00;42.22;;;39.13;;
64651;SDS011;51062;45.120;37.660;2023-08-06T07:01:26;42.10;;;39.00;;
64651;SDS011;51062;45.120;37.660;2023-08-06T07:03:52;57.35;;;53.17;;
64651;SDS011;51062;45.120;37.660;2023-08-06T07:06:18;53.22;;;49.03;;
64651;SDS011;51062;45.120;37.660;2023-08-06T07:08:45;56.22;;;51.95;;
64651;SDS011;51062;45.120;37.660;2023-08-06T07:11:11;66.38;;;60.70;;
64651;SDS011;51062;45.120;37.660;2023-08-06T07:13:37;72.38;;;66.50;;
64651;SDS011;51062;45.120;37.660;2023-08-06T07:16:03;44.67;;;41.05;;
64651;SDS011;51062;45.120;37.660;2023-08-06T07:18:29;47.00;;;43.45;;
64651;SDS011;51062;45.120;37.660;2023-08-06T07:20:55;51.75;;;47.88;;
64651;SDS011;51062;45.120;37.660;2023-08-06T07:23:22;82.30;;;75.30;;
64651;SDS011;51062;45.120;37.660;2023-08-06T07:25:50;48.72;;;44.58;;
64651;SDS011;51062;45.120;37.660;2023-08-06T07:28:17;49.97;;;45.92;;
64651;SDS011;51062;45.120;37.660;2023-08-06T07:30:43;65.70;;;60.45;;
64651;SDS011;51062;45.120;37.660;2023-08-06T07:33:10;48.40;;;44.08;;
64651;SDS011;51062;45.120;37.660;2023-08-06T07:35:37;52.80;;;48.45;;
64651;SDS011;51062;45.120;37.660;2023-08-06T07:38:03;67.93;;;62.33;;
64651;SDS011;51062;45.120;37.660;2023-08-06T07:40:29;44.72;;;40.78;;
64651;SDS011;51062;45.120;37.660;2023-08-06T07:42:55;49.67;;;45.15;;
64651;SDS011;51062;45.120;37.660;2023-08-06T07:45:21;43.78;;;40.50;;
64651;SDS011;51062;45.120;37.660;2023-08-06T07:47:47;50.78;;;46.78;;
64651;SDS011;51062;45.120;37.660;2023-08-06T07:50:13;46.85;;;42.65;;
64651;SDS011;51062;45.120;37.660;2023-08-06T07:52:40;53.55;;;49.47;;
64651;SDS011;51062;45.120;37.660;2023-08-06T07:55:06;48.67;;;45.03;;
64651;SDS011;51062;45.120;37.660;2023-08-06T07:57:32;51.40;;;46.55;;
64651;SDS011;51062;45.120;37.660;2023-08-06T08:00:00;37.28;;;34.45;;
64651;SDS011;51062;45.120;37.660;2023-08-06T08:02:27;48.35;;;44.83;;
64651;SDS011;51062;45.120;37.660;2023-08-06T08:04:53;54.38;;;50.28;;
64651;SDS011;51062;45.120;37.660;2023-08-06T08:07:19;50.15;;;46.15;;
64651;SDS011;51062;45.120;37.660;2023-08-06T08:09:46;46.22;;;42.33;;
64651;SDS011;51062;45.120;37.660;2023-08-06T08:12:13;45.25;;;41.75;;
64651;SDS011;51062;45.120;37.660;2023-08-06T08:14:39;40.95;;;37.95;;
64651;SDS011;51062;45.120;37.660;2023-08-06T08:17:06;49.45;;;44.97;;
64651;SDS011;51062;45.120;37.660;2023-08-06T08:19:32;53.50;;;49.50;;
64651;SDS011;51062;45.120;37.660;2023-08-06T08:21:58;46.35;;;42.90;;
64651;SDS011;51062;45.120;37.660;2023-08-06T08:24:24;41.40;;;37.53;;
64651;SDS011;51062;45.120;37.660;2023-08-06T08:26:51;37.17;;;34.17;;
64651;SDS011;51062;45.120;37.660;2023-08-06T08:29:19;52.45;;;47.97;;
64651;SDS011;51062;45.120;37.660;2023-08-06T08:31:45;44.45;;;41.15;;
64651;SDS011;51062;45.120;37.660;2023-08-06T08:34:13;42.03;;;38.92;;
64651;SDS011;51062;45.120;37.660;2023-08-06T08:36:39;37.58;;;34.72;;
64651;SDS011;51062;45.120;37.660;2023-08-06T08:39:05;51.92;;;47.80;;
64651;SDS011;51062;45.120;37.660;2023-08-06T08:41:31;35.33;;;32.25;;
64651;SDS011;51062;45.120;37.660;2023-08-06T08:43:59;35.83;;;32.92;;
64651;SDS011;51062;45.120;37.660;2023-08-06T08:46:26;38.35;;;35.35;;
64651;SDS011;51062;45.120;37.660;2023-08-06T08:48:54;39.13;;;36.28;;
64651;SDS011;51062;45.120;37.660;2023-08-06T08:51:21;42.13;;;39.05;;
64651;SDS011;51062;45.120;37.660;2023-08-06T08:53:48;36.55;;;33.58;;
64651;SDS011;51062;45.120;37.660;2023-08-06T08:56:18;39.30;;;35.90;;
64651;SDS011;51062;45.120;37.660;2023-08-06T08:58:45;41.45;;;38.35;;
64651;SDS011;51062;45.120;37.660;2023-08-06T09:01:11;48.03;;;43.83;;
64651;SDS011;51062;45.120;37.660;2023-08-06T09:03:37;41.95;;;37.10;;
64651;SDS011;51062;45.120;37.660;2023-08-06T09:06:04;43.15;;;39.92;;
64651;SDS011;51062;45.120;37.660;2023-08-06T09:08:34;42.92;;;39.83;;
64651;SDS011;51062;45.120;37.660;2023-08-06T09:11:04;40.45;;;37.35;;
64651;SDS011;51062;45.120;37.660;2023-08-06T09:13:31;34.15;;;30.85;;
64651;SDS011;51062;45.120;37.660;2023-08-06T09:15:57;47.75;;;44.08;;
64651;SDS011;51062;45.120;37.660;2023-08-06T09:18:26;38.53;;;35.50;;
64651;SDS011;51062;45.120;37.660;2023-08-06T09:20:55;38.80;;;34.75;;
64651;SDS011;51062;45.120;37.660;2023-08-06T09:23:27;43.47;;;40.00;;
64651;SDS011;51062;45.120;37.660;2023-08-06T09:25:59;30.77;;;28.23;;
64651;SDS011;51062;45.120;37.660;2023-08-06T09:28:45;38.20;;;35.30;;
64651;SDS011;51062;45.120;37.660;2023-08-06T09:31:11;52.63;;;48.50;;
64651;SDS011;51062;45.120;37.660;2023-08-06T09:33:37;35.53;;;32.75;;
64651;SDS011;51062;45.120;37.660;2023-08-06T09:36:07;43.33;;;40.08;;
64651;SDS011;51062;45.120;37.660;2023-08-06T09:38:37;41.80;;;32.28;;
64651;SDS011;51062;45.120;37.660;2023-08-06T09:41:07;45.38;;;41.58;;
64651;SDS011;51062;45.120;37.660;2023-08-06T09:43:40;40.83;;;37.53;;
64651;SDS011;51062;45.120;37.660;2023-08-06T09:46:13;47.70;;;43.90;;
64651;SDS011;51062;45.120;37.660;2023-08-06T09:48:44;35.25;;;32.47;;
64651;SDS011;51062;45.120;37.660;2023-08-06T09:51:11;43.03;;;39.20;;
64651;SDS011;51062;45.120;37.660;2023-08-06T09:53:39;41.42;;;38.38;;
64651;SDS011;51062;45.120;37.660;2023-08-06T09:56:06;54.58;;;50.22;;
64651;SDS011;51062;45.120;37.660;2023-08-06T09:58:32;52.28;;;47.85;;
64651;SDS011;51062;45.120;37.660;2023-08-06T10:00:59;43.90;;;40.72;;
64651;SDS011;51062;45.120;37.660;2023-08-06T10:03:27;35.33;;;32.78;;
64651;SDS011;51062;45.120;37.660;2023-08-06T10:05:55;61.22;;;56.05;;
64651;SDS011;51062;45.120;37.660;2023-08-06T10:08:22;37.63;;;34.65;;
64651;SDS011;51062;45.120;37.660;2023-08-06T10:10:48;40.42;;;37.00;;
64651;SDS011;51062;45.120;37.660;2023-08-06T10:13:14;37.15;;;34.03;;
64651;SDS011;51062;45.120;37.660;2023-08-06T10:15:43;40.42;;;36.95;;
64651;SDS011;51062;45.120;37.660;2023-08-06T10:18:09;34.28;;;31.55;;
64651;SDS011;51062;45.120;37.660;2023-08-06T10:20:38;41.13;;;38.03;;
64651;SDS011;51062;45.120;37.660;2023-08-06T10:23:05;49.65;;;45.78;;
64651;SDS011;51062;45.120;37.660;2023-08-06T10:25:33;36.97;;;34.10;;
64651;SDS011;51062;45.120;37.660;2023-08-06T10:28:01;35.15;;;32.35;;
64651;SDS011;51062;45.120;37.660;2023-08-06T10:30:36;41.90;;;38.78;;
64651;SDS011;51062;45.120;37.660;2023-08-06T10:33:07;40.63;;;37.38;;
64651;SDS011;51062;45.120;37.660;2023-08-06T10:35:46;33.75;;;30.58;;
64651;SDS011;51062;45.120;37.660;2023-08-06T10:38:22;43.28;;;40.13;;
64651;SDS011;51062;45.120;37.660;2023-08-06T10:43:27;37.85;;;34.92;;
64651;SDS011;51062;45.120;37.660;2023-08-06T10:46:01;35.67;;;33.05;;
64651;SDS011;51062;45.120;37.660;2023-08-06T10:48:30;45.70;;;40.35;;
64651;SDS011;51062;45.120;37.660;2023-08-06T10:51:14;39.70;;;36.50;;
64651;SDS011;51062;45.120;37.660;2023-08-06T10:53:47;28.98;;;26.55;;
64651;SDS011;51062;45.120;37.660;2023-08-06T10:56:14;48.10;;;44.08;;
64651;SDS011;51062;45.120;37.660;2023-08-06T10:58:45;48.60;;;44.92;;
64651;SDS011;51062;45.120;37.660;2023-08-06T11:01:12;40.58;;;37.65;;
64651;SDS011;51062;45.120;37.660;2023-08-06T11:03:39;36.88;;;33.63;;
64651;SDS011;51062;45.120;37.660;2023-08-06T11:06:08;32.67;;;30.20;;
64651;SDS011;51062;45.120;37.660;2023-08-06T11:08:40;36.10;;;33.28;;
64651;SDS011;51062;45.120;37.660;2023-08-06T11:11:14;41.25;;;37.08;;
64651;SDS011;51062;45.120;37.660;2023-08-06T11:13:44;39.47;;;35.75;;
64651;SDS011;51062;45.120;37.660;2023-08-06T11:16:12;43.97;;;39.97;;
64651;SDS011;51062;45.120;37.660;2023-08-06T11:18:40;31.50;;;28.80;;
64651;SDS011;51062;45.120;37.660;2023-08-06T11:21:07;35.33;;;32.85;;
64651;SDS011;51062;45.120;37.660;2023-08-06T11:23:34;42.70;;;39.25;;
64651;SDS011;51062;45.120;37.660;2023-08-06T11:26:01;36.50;;;33.50;;
64651;SDS011;51062;45.120;37.660;2023-08-06T11:28:28;28.48;;;25.98;;
64651;SDS011;51062;45.120;37.660;2023-08-06T11:30:54;34.88;;;32.17;;
64651;SDS011;51062;45.120;37.660;2023-08-06T11:33:22;31.42;;;29.15;;
64651;SDS011;51062;45.120;37.660;2023-08-06T11:35:51;27.10;;;25.20;;
64651;SDS011;51062;45.120;37.660;2023-08-06T11:38:18;27.70;;;25.60;;
64651;SDS011;51062;45.120;37.660;2023-08-06T11:40:44;45.58;;;41.90;;
64651;SDS011;51062;45.120;37.660;2023-08-06T11:43:14;32.90;;;30.05;;
64651;SDS011;51062;45.120;37.660;2023-08-06T11:45:40;41.50;;;37.25;;
64651;SDS011;51062;45.120;37.660;2023-08-06T11:48:07;38.28;;;35.45;;
64651;SDS011;51062;45.120;37.660;2023-08-06T11:50:36;46.10;;;37.75;;
64651;SDS011;51062;45.120;37.660;2023-08-06T11:53:06;38.97;;;36.00;;
64651;SDS011;51062;45.120;37.660;2023-08-06T11:55:32;38.58;;;35.20;;
64651;SDS011;51062;45.120;37.660;2023-08-06T11:58:02;38.25;;;35.53;;
64651;SDS011;51062;45.120;37.660;2023-08-06T12:00:30;35.67;;;33.00;;
64651;SDS011;51062;45.120;37.660;2023-08-06T12:02:56;32.42;;;30.00;;
64651;SDS011;51062;45.120;37.660;2023-08-06T12:05:23;33.15;;;29.80;;
64651;SDS011;51062;45.120;37.660;2023-08-06T12:07:57;42.25;;;38.80;;
64651;SDS011;51062;45.120;37.660;2023-08-06T12:10:25;35.10;;;32.22;;
64651;SDS011;51062;45.120;37.660;2023-08-06T12:12:53;35.08;;;32.58;;
64651;SDS011;51062;45.120;37.660;2023-08-06T12:15:20;34.22;;;31.50;;
64651;SDS011;51062;45.120;37.660;2023-08-06T12:17:46;41.88;;;38.78;;
64651;SDS011;51062;45.120;37.660;2023-08-06T12:20:12;35.75;;;31.83;;
64651;SDS011;51062;45.120;37.660;2023-08-06T12:22:38;39.08;;;36.33;;
64651;SDS011;51062;45.120;37.660;2023-08-06T12:25:06;40.13;;;37.00;;
64651;SDS011;51062;45.120;37.660;2023-08-06T12:27:38;38.95;;;36.17;;
64651;SDS011;51062;45.120;37.660;2023-08-06T12:30:05;40.95;;;37.80;;
64651;SDS011;51062;45.120;37.660;2023-08-06T12:32:33;25.60;;;23.67;;
64651;SDS011;51062;45.120;37.660;2023-08-06T12:34:59;39.65;;;36.60;;
64651;SDS011;51062;45.120;37.660;2023-08-06T12:37:26;37.25;;;34.30;;
64651;SDS011;51062;45.120;37.660;2023-08-06T12:39:53;42.05;;;37.05;;
64651;SDS011;51062;45.120;37.660;2023-08-06T12:42:19;33.45;;;30.80;;
64651;SDS011;51062;45.120;37.660;2023-08-06T12:44:45;28.52;;;26.13;;
64651;SDS011;51062;45.120;37.660;2023-08-06T12:47:13;34.35;;;30.95;;
64651;SDS011;51062;45.120;37.660;2023-08-06T12:49:39;34.55;;;27.25;;
64651;SDS011;51062;45.120;37.660;2023-08-06T12:52:05;41.88;;;38.78;;
64651;SDS011;51062;45.120;37.660;2023-08-06T12:54:33;31.15;;;28.40;;
64651;SDS011;51062;45.120;37.660;2023-08-06T12:57:03;26.65;;;24.48;;
64651;SDS011;51062;45.120;37.660;2023-08-06T12:59:30;27.92;;;25.92;;
64651;SDS011;51062;45.120;37.660;2023-08-06T13:01:56;35.65;;;33.08;;
64651;SDS011;51062;45.120;37.660;2023-08-06T13:04:22;38.40;;;34.95;;
64651;SDS011;51062;45.120;37.660;2023-08-06T13:06:48;51.85;;;47.80;;
64651;SDS011;51062;45.120;37.660;2023-08-06T13:09:14;28.50;;;26.38;;
64651;SDS011;51062;45.120;37.660;2023-08-06T13:11:41;37.78;;;35.00;;
64651;SDS011;51062;45.120;37.660;2023-08-06T13:14:11;31.98;;;28.63;;
64651;SDS011;51062;45.120;37.660;2023-08-06T13:16:39;26.90;;;24.77;;
64651;SDS011;51062;45.120;37.660;2023-08-06T13:19:07;48.97;;;44.95;;
64651;SDS011;51062;45.120;37.660;2023-08-06T13:24:13;31.92;;;29.33;;
64651;SDS011;51062;45.120;37.660;2023-08-06T13:26:39;26.98;;;24.75;;
64651;SDS011;51062;45.120;37.660;2023-08-06T13:29:05;21.83;;;20.02;;
64651;SDS011;51062;45.120;37.660;2023-08-06T13:31:32;52.78;;;47.65;;
64651;SDS011;51062;45.120;37.660;2023-08-06T13:33:59;30.05;;;27.95;;
64651;SDS011;51062;45.120;37.660;2023-08-06T13:36:28;86.68;;;31.55;;
64651;SDS011;51062;45.120;37.660;2023-08-06T13:38:55;29.98;;;26.67;;
64651;SDS011;51062;45.120;37.660;2023-08-06T13:41:22;50.10;;;45.47;;
64651;SDS011;51062;45.120;37.660;2023-08-06T13:43:48;27.75;;;25.67;;
64651;SDS011;51062;45.120;37.660;2023-08-06T13:46:15;26.30;;;24.38;;
64651;SDS011;51062;45.120;37.660;2023-08-06T13:48:46;30.05;;;27.25;;
64651;SDS011;51062;45.120;37.660;2023-08-06T13:51:16;30.02;;;26.17;;
64651;SDS011;51062;45.120;37.660;2023-08-06T13:53:42;30.20;;;27.98;;
64651;SDS011;51062;45.120;37.660;2023-08-06T13:56:09;30.25;;;28.15;;
64651;SDS011;51062;45.120;37.660;2023-08-06T13:58:37;30.95;;;28.85;;
64651;SDS011;51062;45.120;37.660;2023-08-06T14:01:03;27.40;;;24.77;;
64651;SDS011;51062;45.120;37.660;2023-08-06T14:03:29;27.70;;;25.75;;
64651;SDS011;51062;45.120;37.660;2023-08-06T14:05:55;67.78;;;61.67;;
64651;SDS011;51062;45.120;37.660;2023-08-06T14:08:22;32.05;;;29.83;;
64651;SDS011;51062;45.120;37.660;2023-08-06T14:10:51;26.67;;;24.55;;
64651;SDS011;51062;45.120;37.660;2023-08-06T14:13:18;35.08;;;31.50;;
64651;SDS011;51062;45.120;37.660;2023-08-06T14:15:44;33.65;;;30.67;;
64651;SDS011;51062;45.120;37.660;2023-08-06T14:18:13;22.40;;;20.50;;
64651;SDS011;51062;45.120;37.660;2023-08-06T14:20:40;26.88;;;24.20;;
64651;SDS011;51062;45.120;37.660;2023-08-06T14:23:07;27.40;;;24.63;;
64651;SDS011;51062;45.120;37.660;2023-08-06T14:25:33;29.50;;;27.30;;